sensor_id;sensor_type;location;lat;lon;timestamp;pressure;altitude;pressure_sealevel;temperature;humidity
30949;BME280;17637;51.984;21.208;2022-12-18T00:01:45;101595.41;;;-6.34;75.76
30949;BME280;17637;51.984;21.208;2022-12-18T00:04:22;101598.22;;;-6.17;75.45
30949;BME280;17637;51.984;21.208;2022-12-18T00:06:55;101581.28;;;-6.22;74.95
30949;BME280;17637;51.984;21.208;2022-12-18T00:09:27;101592.91;;;-6.32;75.22
30949;BME280;17637;51.984;21.208;2022-12-18T00:12:10;101538.06;;;-6.81;75.77
30949;BME280;17637;51.984;21.208;2022-12-18T00:14:46;101592.50;;;-6.54;75.64
30949;BME280;17637;51.984;21.208;2022-12-18T00:17:18;101627.53;;;-6.30;75.81
30949;BME280;17637;51.984;21.208;2022-12-18T00:19:50;101581.56;;;-6.54;75.51
30949;BME280;17637;51.984;21.208;2022-12-18T00:22:22;101614.72;;;-6.39;75.86
30949;BME280;17637;51.984;21.208;2022-12-18T00:24:54;101624.13;;;-6.32;75.36
30949;BME280;17637;51.984;21.208;2022-12-18T00:27:26;101609.53;;;-6.45;75.51
30949;BME280;17637;51.984;21.208;2022-12-18T00:29:58;101621.50;;;-6.38;76.02
30949;BME280;17637;51.984;21.208;2022-12-18T00:32:30;101595.25;;;-6.43;75.80
30949;BME280;17637;51.984;21.208;2022-12-18T00:35:02;101611.25;;;-6.44;75.81
30949;BME280;17637;51.984;21.208;2022-12-18T00:37:34;101599.66;;;-6.33;75.56
30949;BME280;17637;51.984;21.208;2022-12-18T00:40:06;101620.94;;;-6.21;75.44
30949;BME280;17637;51.984;21.208;2022-12-18T00:42:39;101541.59;;;-6.74;75.53
30949;BME280;17637;51.984;21.208;2022-12-18T00:45:30;101638.69;;;-6.18;75.79
30949;BME280;17637;51.984;21.208;2022-12-18T00:48:03;101608.56;;;-6.53;75.96
30949;BME280;17637;51.984;21.208;2022-12-18T00:50:35;101637.66;;;-6.30;76.06
30949;BME280;17637;51.984;21.208;2022-12-18T00:53:07;101622.13;;;-6.48;76.26
30949;BME280;17637;51.984;21.208;2022-12-18T00:55:39;101628.03;;;-6.49;76.26
30949;BME280;17637;51.984;21.208;2022-12-18T00:58:13;101657.47;;;-6.05;75.82
30949;BME280;17637;51.984;21.208;2022-12-18T01:00:45;101610.16;;;-6.58;76.01
30949;BME280;17637;51.984;21.208;2022-12-18T01:03:17;101649.63;;;-6.21;75.73
30949;BME280;17637;51.984;21.208;2022-12-18T01:05:49;101640.94;;;-6.35;76.09
30949;BME280;17637;51.984;21.208;2022-12-18T01:08:22;101657.25;;;-6.18;75.87
30949;BME280;17637;51.984;21.208;2022-12-18T01:10:54;101636.81;;;-6.29;75.76
30949;BME280;17637;51.984;21.208;2022-12-18T01:13:26;101640.13;;;-6.34;75.90
30949;BME280;17637;51.984;21.208;2022-12-18T01:15:58;101660.69;;;-6.16;75.53
30949;BME280;17637;51.984;21.208;2022-12-18T01:18:30;101685.50;;;-5.95;75.56
30949;BME280;17637;51.984;21.208;2022-12-18T01:21:11;101630.78;;;-6.37;75.51
30949;BME280;17637;51.984;21.208;2022-12-18T01:23:43;101690.41;;;-6.04;75.37
30949;BME280;17637;51.984;21.208;2022-12-18T01:26:16;101667.25;;;-6.26;75.61
30949;BME280;17637;51.984;21.208;2022-12-18T01:28:48;101661.81;;;-6.00;75.12
30949;BME280;17637;51.984;21.208;2022-12-18T01:31:28;101682.78;;;-6.07;75.43
30949;BME280;17637;51.984;21.208;2022-12-18T01:34:01;101695.47;;;-6.05;75.50
30949;BME280;17637;51.984;21.208;2022-12-18T01:36:36;101692.19;;;-6.00;75.65
30949;BME280;17637;51.984;21.208;2022-12-18T01:39:13;101701.47;;;-6.00;75.56
30949;BME280;17637;51.984;21.208;2022-12-18T01:41:46;101651.13;;;-6.31;75.69
30949;BME280;17637;51.984;21.208;2022-12-18T01:50:20;101714.22;;;-5.93;75.53
30949;BME280;17637;51.984;21.208;2022-12-18T01:53:17;101723.75;;;-5.79;75.30
30949;BME280;17637;51.984;21.208;2022-12-18T01:55:52;101703.19;;;-5.96;75.44
30949;BME280;17637;51.984;21.208;2022-12-18T01:58:54;101726.34;;;-5.76;75.59
30949;BME280;17637;51.984;21.208;2022-12-18T02:01:27;101735.66;;;-5.75;75.21
30949;BME280;17637;51.984;21.208;2022-12-18T02:04:33;101741.50;;;-5.79;75.48
30949;BME280;17637;51.984;21.208;2022-12-18T02:09:50;101742.53;;;-5.68;75.25
30949;BME280;17637;51.984;21.208;2022-12-18T02:12:24;101742.53;;;-5.68;75.12
30949;BME280;17637;51.984;21.208;2022-12-18T02:15:13;101668.19;;;-6.20;75.13
30949;BME280;17637;51.984;21.208;2022-12-18T02:23:47;101759.59;;;-5.57;75.09
30949;BME280;17637;51.984;21.208;2022-12-18T02:26:34;101753.47;;;-5.70;74.64
30949;BME280;17637;51.984;21.208;2022-12-18T02:29:24;101738.59;;;-6.01;75.32
30949;BME280;17637;51.984;21.208;2022-12-18T02:31:59;101758.38;;;-5.78;75.01
30949;BME280;17637;51.984;21.208;2022-12-18T02:34:35;101713.13;;;-6.10;74.97
30949;BME280;17637;51.984;21.208;2022-12-18T02:37:12;101763.44;;;-5.78;74.92
30949;BME280;17637;51.984;21.208;2022-12-18T02:39:48;101700.22;;;-6.22;75.05
30949;BME280;17637;51.984;21.208;2022-12-18T02:42:21;101690.94;;;-6.22;74.96
30949;BME280;17637;51.984;21.208;2022-12-18T02:44:55;101706.34;;;-6.10;74.55
30949;BME280;17637;51.984;21.208;2022-12-18T02:47:34;101770.13;;;-5.82;74.69
30949;BME280;17637;51.984;21.208;2022-12-18T02:50:35;101786.59;;;-5.58;74.70
30949;BME280;17637;51.984;21.208;2022-12-18T02:53:22;101789.00;;;-5.66;74.40
30949;BME280;17637;51.984;21.208;2022-12-18T02:56:11;101775.38;;;-5.71;74.16
30949;BME280;17637;51.984;21.208;2022-12-18T02:59:05;101802.66;;;-5.57;74.43
30949;BME280;17637;51.984;21.208;2022-12-18T03:04:26;101788.13;;;-5.68;74.10
30949;BME280;17637;51.984;21.208;2022-12-18T03:07:03;101772.75;;;-5.77;74.02
30949;BME280;17637;51.984;21.208;2022-12-18T03:09:42;101805.75;;;-5.72;74.30
30949;BME280;17637;51.984;21.208;2022-12-18T03:12:21;101803.41;;;-5.62;74.11
30949;BME280;17637;51.984;21.208;2022-12-18T03:15:02;101818.00;;;-5.50;74.11
30949;BME280;17637;51.984;21.208;2022-12-18T03:17:36;101829.00;;;-5.48;73.98
30949;BME280;17637;51.984;21.208;2022-12-18T03:20:17;101806.97;;;-5.53;73.76
30949;BME280;17637;51.984;21.208;2022-12-18T03:22:53;101798.47;;;-5.54;73.54
30949;BME280;17637;51.984;21.208;2022-12-18T03:25:28;101798.31;;;-5.65;73.48
30949;BME280;17637;51.984;21.208;2022-12-18T03:28:03;101784.19;;;-5.52;73.47
30949;BME280;17637;51.984;21.208;2022-12-18T03:30:38;101836.22;;;-5.22;73.31
30949;BME280;17637;51.984;21.208;2022-12-18T03:33:27;101842.16;;;-5.21;73.49
30949;BME280;17637;51.984;21.208;2022-12-18T03:36:01;101840.47;;;-5.21;73.17
30949;BME280;17637;51.984;21.208;2022-12-18T03:38:33;101828.31;;;-5.40;73.28
30949;BME280;17637;51.984;21.208;2022-12-18T03:52:11;101868.47;;;-5.15;73.17
30949;BME280;17637;51.984;21.208;2022-12-18T03:54:45;101856.75;;;-5.06;73.12
30949;BME280;17637;51.984;21.208;2022-12-18T03:57:20;101867.41;;;-5.26;73.64
30949;BME280;17637;51.984;21.208;2022-12-18T04:00:00;101871.63;;;-5.27;73.56
30949;BME280;17637;51.984;21.208;2022-12-18T04:02:35;101869.84;;;-5.31;73.67
30949;BME280;17637;51.984;21.208;2022-12-18T04:05:10;101851.94;;;-5.40;73.95
30949;BME280;17637;51.984;21.208;2022-12-18T04:07:48;101845.13;;;-5.44;73.24
30949;BME280;17637;51.984;21.208;2022-12-18T04:10:22;101828.97;;;-5.51;73.66
30949;BME280;17637;51.984;21.208;2022-12-18T04:12:58;101884.59;;;-5.09;73.44
30949;BME280;17637;51.984;21.208;2022-12-18T04:15:33;101880.47;;;-5.50;74.08
30949;BME280;17637;51.984;21.208;2022-12-18T04:18:07;101892.03;;;-5.20;73.66
30949;BME280;17637;51.984;21.208;2022-12-18T04:20:39;101883.22;;;-5.39;73.72
30949;BME280;17637;51.984;21.208;2022-12-18T04:23:11;101876.72;;;-5.27;73.77
30949;BME280;17637;51.984;21.208;2022-12-18T04:25:43;101875.00;;;-5.26;73.55
30949;BME280;17637;51.984;21.208;2022-12-18T04:28:15;101887.53;;;-5.34;73.34
30949;BME280;17637;51.984;21.208;2022-12-18T04:30:49;101885.91;;;-5.32;73.34
30949;BME280;17637;51.984;21.208;2022-12-18T04:33:21;101790.94;;;-6.00;73.43
30949;BME280;17637;51.984;21.208;2022-12-18T04:35:53;101882.84;;;-5.60;73.62
30949;BME280;17637;51.984;21.208;2022-12-18T04:38:25;101890.47;;;-5.56;73.69
30949;BME280;17637;51.984;21.208;2022-12-18T04:40:58;101882.00;;;-5.60;73.46
30949;BME280;17637;51.984;21.208;2022-12-18T04:43:30;101894.84;;;-5.51;73.30
30949;BME280;17637;51.984;21.208;2022-12-18T04:46:08;101922.84;;;-5.43;73.33
30949;BME280;17637;51.984;21.208;2022-12-18T04:48:40;101869.63;;;-5.87;73.48
30949;BME280;17637;51.984;21.208;2022-12-18T04:51:12;101944.44;;;-5.62;73.67
30949;BME280;17637;51.984;21.208;2022-12-18T04:53:44;101908.69;;;-5.76;73.81
30949;BME280;17637;51.984;21.208;2022-12-18T04:56:16;101932.59;;;-5.63;73.44
30949;BME280;17637;51.984;21.208;2022-12-18T04:58:48;101950.28;;;-5.66;73.53
30949;BME280;17637;51.984;21.208;2022-12-18T05:01:21;101948.84;;;-5.53;73.57
30949;BME280;17637;51.984;21.208;2022-12-18T05:03:53;101922.16;;;-5.77;73.45
30949;BME280;17637;51.984;21.208;2022-12-18T05:06:25;101927.22;;;-5.77;73.74
30949;BME280;17637;51.984;21.208;2022-12-18T05:08:58;101913.63;;;-5.82;73.68
30949;BME280;17637;51.984;21.208;2022-12-18T05:11:30;101935.41;;;-5.90;73.71
30949;BME280;17637;51.984;21.208;2022-12-18T05:14:02;101944.81;;;-5.83;73.96
30949;BME280;17637;51.984;21.208;2022-12-18T05:16:34;101936.03;;;-6.02;74.10
30949;BME280;17637;51.984;21.208;2022-12-18T05:19:06;101942.75;;;-6.03;74.12
30949;BME280;17637;51.984;21.208;2022-12-18T05:21:38;101975.13;;;-5.88;74.17
30949;BME280;17637;51.984;21.208;2022-12-18T05:24:10;101963.72;;;-6.10;73.94
30949;BME280;17637;51.984;21.208;2022-12-18T05:26:42;101986.13;;;-5.86;74.13
30949;BME280;17637;51.984;21.208;2022-12-18T05:29:14;101959.47;;;-6.10;74.25
30949;BME280;17637;51.984;21.208;2022-12-18T05:31:46;101984.31;;;-5.91;74.24
30949;BME280;17637;51.984;21.208;2022-12-18T05:34:18;101997.88;;;-5.89;74.26
30949;BME280;17637;51.984;21.208;2022-12-18T05:36:50;101987.34;;;-6.08;74.71
30949;BME280;17637;51.984;21.208;2022-12-18T05:39:23;101983.84;;;-6.15;74.67
30949;BME280;17637;51.984;21.208;2022-12-18T05:41:55;101970.91;;;-6.26;74.57
30949;BME280;17637;51.984;21.208;2022-12-18T05:44:27;102001.88;;;-6.01;74.54
30949;BME280;17637;51.984;21.208;2022-12-18T05:46:59;102004.25;;;-6.07;74.71
30949;BME280;17637;51.984;21.208;2022-12-18T05:49:31;101985.53;;;-6.15;74.49
30949;BME280;17637;51.984;21.208;2022-12-18T05:52:03;101974.38;;;-6.22;74.61
30949;BME280;17637;51.984;21.208;2022-12-18T05:54:37;102012.22;;;-5.90;74.27
30949;BME280;17637;51.984;21.208;2022-12-18T05:57:09;101972.75;;;-6.20;74.10
30949;BME280;17637;51.984;21.208;2022-12-18T05:59:42;101983.84;;;-6.15;74.37
30949;BME280;17637;51.984;21.208;2022-12-18T06:02:14;102000.09;;;-6.05;74.34
30949;BME280;17637;51.984;21.208;2022-12-18T06:04:46;102008.25;;;-6.17;74.36
30949;BME280;17637;51.984;21.208;2022-12-18T06:07:18;102028.13;;;-5.96;74.28
30949;BME280;17637;51.984;21.208;2022-12-18T06:09:50;102024.06;;;-6.26;75.01
30949;BME280;17637;51.984;21.208;2022-12-18T06:12:22;102016.56;;;-6.22;74.76
30949;BME280;17637;51.984;21.208;2022-12-18T06:14:54;102039.66;;;-6.10;74.70
30949;BME280;17637;51.984;21.208;2022-12-18T06:17:30;102062.56;;;-6.04;75.04
30949;BME280;17637;51.984;21.208;2022-12-18T06:20:04;102054.84;;;-6.10;75.07
30949;BME280;17637;51.984;21.208;2022-12-18T06:22:36;102079.59;;;-5.97;74.83
30949;BME280;17637;51.984;21.208;2022-12-18T06:25:09;101997.16;;;-6.57;74.96
30949;BME280;17637;51.984;21.208;2022-12-18T06:27:41;102005.69;;;-6.53;74.80
30949;BME280;17637;51.984;21.208;2022-12-18T06:30:13;102073.22;;;-6.17;75.04
30949;BME280;17637;51.984;21.208;2022-12-18T06:32:46;101995.56;;;-6.87;75.68
30949;BME280;17637;51.984;21.208;2022-12-18T06:35:26;102071.34;;;-6.24;75.84
30949;BME280;17637;51.984;21.208;2022-12-18T06:38:01;102107.09;;;-6.12;75.66
30949;BME280;17637;51.984;21.208;2022-12-18T06:40:33;102114.31;;;-6.26;75.89
30949;BME280;17637;51.984;21.208;2022-12-18T06:43:06;102116.41;;;-6.11;75.58
30949;BME280;17637;51.984;21.208;2022-12-18T06:45:38;102018.72;;;-6.71;75.54
30949;BME280;17637;51.984;21.208;2022-12-18T06:48:10;102005.66;;;-6.87;75.60
30949;BME280;17637;51.984;21.208;2022-12-18T06:50:42;102112.38;;;-6.03;75.38
30949;BME280;17637;51.984;21.208;2022-12-18T06:53:14;102103.34;;;-6.27;75.62
30949;BME280;17637;51.984;21.208;2022-12-18T06:55:46;102052.66;;;-6.62;75.30
30949;BME280;17637;51.984;21.208;2022-12-18T06:58:18;102104.59;;;-6.11;75.31
30949;BME280;17637;51.984;21.208;2022-12-18T07:00:50;102125.84;;;-6.04;75.07
30949;BME280;17637;51.984;21.208;2022-12-18T07:03:23;102115.38;;;-6.18;75.02
30949;BME280;17637;51.984;21.208;2022-12-18T07:05:55;102081.59;;;-6.52;75.32
30949;BME280;17637;51.984;21.208;2022-12-18T07:08:29;102135.34;;;-6.29;75.33
30949;BME280;17637;51.984;21.208;2022-12-18T07:11:03;102133.66;;;-6.28;75.40
30949;BME280;17637;51.984;21.208;2022-12-18T07:13:36;102167.13;;;-6.06;74.96
30949;BME280;17637;51.984;21.208;2022-12-18T07:16:12;102139.38;;;-6.03;74.77
30949;BME280;17637;51.984;21.208;2022-12-18T07:18:54;102159.06;;;-5.90;74.75
30949;BME280;17637;51.984;21.208;2022-12-18T07:21:27;102172.28;;;-6.03;74.89
30949;BME280;17637;51.984;21.208;2022-12-18T07:23:59;102174.63;;;-6.11;74.70
30949;BME280;17637;51.984;21.208;2022-12-18T07:26:31;102169.28;;;-6.20;74.98
30949;BME280;17637;51.984;21.208;2022-12-18T07:29:03;102156.34;;;-6.33;74.83
30949;BME280;17637;51.984;21.208;2022-12-18T07:31:36;102192.53;;;-6.03;74.69
30949;BME280;17637;51.984;21.208;2022-12-18T07:34:13;102198.44;;;-6.03;74.92
30949;BME280;17637;51.984;21.208;2022-12-18T07:36:46;102168.00;;;-6.06;74.10
30949;BME280;17637;51.984;21.208;2022-12-18T07:39:18;102115.72;;;-6.37;74.33
30949;BME280;17637;51.984;21.208;2022-12-18T07:41:50;102167.41;;;-6.29;74.36
30949;BME280;17637;51.984;21.208;2022-12-18T07:44:41;102197.34;;;-5.79;74.13
30949;BME280;17637;51.984;21.208;2022-12-18T07:47:13;102188.69;;;-5.87;74.06
30949;BME280;17637;51.984;21.208;2022-12-18T07:49:45;102174.06;;;-5.99;74.39
30949;BME280;17637;51.984;21.208;2022-12-18T07:52:17;102203.34;;;-5.76;73.83
30949;BME280;17637;51.984;21.208;2022-12-18T07:54:56;102186.97;;;-5.88;73.83
30949;BME280;17637;51.984;21.208;2022-12-18T07:57:28;102230.28;;;-5.46;73.67
30949;BME280;17637;51.984;21.208;2022-12-18T08:00:21;102227.66;;;-5.49;73.12
30949;BME280;17637;51.984;21.208;2022-12-18T08:02:54;102222.09;;;-5.34;72.46
30949;BME280;17637;51.984;21.208;2022-12-18T08:05:27;102202.81;;;-5.64;72.99
30949;BME280;17637;51.984;21.208;2022-12-18T08:07:59;102232.78;;;-5.47;72.79
30949;BME280;17637;51.984;21.208;2022-12-18T08:10:31;102169.88;;;-6.31;73.37
30949;BME280;17637;51.984;21.208;2022-12-18T08:13:03;102236.72;;;-5.58;73.19
30949;BME280;17637;51.984;21.208;2022-12-18T08:15:35;102247.00;;;-5.52;73.09
30949;BME280;17637;51.984;21.208;2022-12-18T08:18:08;102233.88;;;-5.36;72.57
30949;BME280;17637;51.984;21.208;2022-12-18T08:20:44;102250.31;;;-5.55;72.73
30949;BME280;17637;51.984;21.208;2022-12-18T08:23:16;102240.97;;;-5.57;72.73
30949;BME280;17637;51.984;21.208;2022-12-18T08:25:48;102255.88;;;-5.35;72.44
30949;BME280;17637;51.984;21.208;2022-12-18T08:28:21;102247.44;;;-5.34;72.42
30949;BME280;17637;51.984;21.208;2022-12-18T08:30:53;102257.97;;;-5.18;71.94
30949;BME280;17637;51.984;21.208;2022-12-18T08:33:25;102229.97;;;-5.23;71.67
30949;BME280;17637;51.984;21.208;2022-12-18T08:35:59;102256.66;;;-5.02;71.32
30949;BME280;17637;51.984;21.208;2022-12-18T08:38:32;102261.91;;;-4.95;70.86
30949;BME280;17637;51.984;21.208;2022-12-18T08:41:06;102295.03;;;-5.22;71.73
30949;BME280;17637;51.984;21.208;2022-12-18T08:43:39;102271.31;;;-5.25;71.82
30949;BME280;17637;51.984;21.208;2022-12-18T08:46:41;102288.75;;;-5.38;72.48
30949;BME280;17637;51.984;21.208;2022-12-18T08:49:13;102292.59;;;-5.19;72.00
30949;BME280;17637;51.984;21.208;2022-12-18T08:51:45;102263.81;;;-5.21;71.68
30949;BME280;17637;51.984;21.208;2022-12-18T08:54:17;102269.50;;;-4.95;71.25
30949;BME280;17637;51.984;21.208;2022-12-18T08:56:50;102288.56;;;-4.74;71.10
30949;BME280;17637;51.984;21.208;2022-12-18T08:59:22;102266.84;;;-4.99;70.65
30949;BME280;17637;51.984;21.208;2022-12-18T09:01:55;102272.88;;;-4.94;71.16
30949;BME280;17637;51.984;21.208;2022-12-18T09:04:27;102291.03;;;-4.77;70.76
30949;BME280;17637;51.984;21.208;2022-12-18T09:06:59;102294.22;;;-4.48;69.93
30949;BME280;17637;51.984;21.208;2022-12-18T09:09:31;102294.47;;;-4.35;69.85
30949;BME280;17637;51.984;21.208;2022-12-18T09:12:04;102311.53;;;-4.30;69.09
30949;BME280;17637;51.984;21.208;2022-12-18T09:14:36;102304.63;;;-4.35;68.98
30949;BME280;17637;51.984;21.208;2022-12-18T09:17:08;102317.34;;;-4.34;68.73
30949;BME280;17637;51.984;21.208;2022-12-18T09:19:41;102296.06;;;-4.40;69.15
30949;BME280;17637;51.984;21.208;2022-12-18T09:22:13;102316.88;;;-4.55;69.12
30949;BME280;17637;51.984;21.208;2022-12-18T09:24:45;102290.69;;;-4.91;69.45
30949;BME280;17637;51.984;21.208;2022-12-18T09:27:17;102333.72;;;-4.59;69.91
30949;BME280;17637;51.984;21.208;2022-12-18T09:29:49;102334.13;;;-4.79;70.10
30949;BME280;17637;51.984;21.208;2022-12-18T09:32:21;102304.25;;;-4.90;70.28
30949;BME280;17637;51.984;21.208;2022-12-18T09:34:53;102303.00;;;-4.71;70.07
30949;BME280;17637;51.984;21.208;2022-12-18T09:37:25;102298.06;;;-5.02;70.22
30949;BME280;17637;51.984;21.208;2022-12-18T09:39:57;102325.75;;;-4.74;70.48
30949;BME280;17637;51.984;21.208;2022-12-18T09:42:29;102335.69;;;-4.84;70.54
30949;BME280;17637;51.984;21.208;2022-12-18T09:45:02;102307.63;;;-4.91;70.52
30949;BME280;17637;51.984;21.208;2022-12-18T09:47:36;102323.47;;;-4.25;69.37
30949;BME280;17637;51.984;21.208;2022-12-18T09:50:45;102336.69;;;-4.01;68.87
30949;BME280;17637;51.984;21.208;2022-12-18T09:53:24;102327.38;;;-4.40;69.28
30949;BME280;17637;51.984;21.208;2022-12-18T09:55:57;102303.78;;;-4.36;69.12
30949;BME280;17637;51.984;21.208;2022-12-18T09:58:43;102336.50;;;-4.08;68.55
30949;BME280;17637;51.984;21.208;2022-12-18T10:01:21;102333.09;;;-4.09;68.19
30949;BME280;17637;51.984;21.208;2022-12-18T10:03:55;102338.19;;;-4.09;67.95
30949;BME280;17637;51.984;21.208;2022-12-18T10:09:42;102332.22;;;-4.11;67.43
30949;BME280;17637;51.984;21.208;2022-12-18T10:12:52;102328.19;;;-4.01;67.64
30949;BME280;17637;51.984;21.208;2022-12-18T10:16:09;102340.38;;;-3.85;66.99
30949;BME280;17637;51.984;21.208;2022-12-18T10:21:44;102344.59;;;-3.85;66.80
30949;BME280;17637;51.984;21.208;2022-12-18T10:27:04;102344.91;;;-3.68;65.70
30949;BME280;17637;51.984;21.208;2022-12-18T10:29:42;102343.56;;;-3.51;65.68
30949;BME280;17637;51.984;21.208;2022-12-18T10:32:18;102309.94;;;-3.82;65.79
30949;BME280;17637;51.984;21.208;2022-12-18T10:34:54;102354.72;;;-3.42;65.29
30949;BME280;17637;51.984;21.208;2022-12-18T10:37:31;102343.59;;;-3.49;65.08
30949;BME280;17637;51.984;21.208;2022-12-18T10:42:41;102330.59;;;-3.65;65.50
30949;BME280;17637;51.984;21.208;2022-12-18T10:45:16;102352.97;;;-3.47;65.45
30949;BME280;17637;51.984;21.208;2022-12-18T10:47:52;102324.84;;;-3.56;65.03
30949;BME280;17637;51.984;21.208;2022-12-18T10:50:34;102341.03;;;-3.51;64.72
30949;BME280;17637;51.984;21.208;2022-12-18T10:53:28;102323.13;;;-3.57;65.23
30949;BME280;17637;51.984;21.208;2022-12-18T10:56:03;102340.38;;;-3.40;66.30
30949;BME280;17637;51.984;21.208;2022-12-18T10:58:38;102367.28;;;-3.50;65.77
30949;BME280;17637;51.984;21.208;2022-12-18T11:01:17;102349.31;;;-3.61;66.48
30949;BME280;17637;51.984;21.208;2022-12-18T11:06:23;102367.84;;;-3.19;65.05
30949;BME280;17637;51.984;21.208;2022-12-18T11:09:22;102377.63;;;-2.93;64.49
30949;BME280;17637;51.984;21.208;2022-12-18T11:11:57;102373.03;;;-3.15;64.68
30949;BME280;17637;51.984;21.208;2022-12-18T11:14:34;102389.47;;;-2.95;64.59
30949;BME280;17637;51.984;21.208;2022-12-18T11:17:31;102374.72;;;-3.15;65.12
30949;BME280;17637;51.984;21.208;2022-12-18T11:23:05;102375.25;;;-2.84;64.38
30949;BME280;17637;51.984;21.208;2022-12-18T11:25:54;102381.56;;;-3.11;64.75
30949;BME280;17637;51.984;21.208;2022-12-18T11:28:43;102341.16;;;-3.43;64.60
30949;BME280;17637;51.984;21.208;2022-12-18T11:31:26;102377.88;;;-3.27;64.39
30949;BME280;17637;51.984;21.208;2022-12-18T11:37:00;102346.81;;;-4.02;65.17
30949;BME280;17637;51.984;21.208;2022-12-18T11:39:44;102383.50;;;-3.45;65.05
30949;BME280;17637;51.984;21.208;2022-12-18T11:42:32;102358.84;;;-3.49;64.03
30949;BME280;17637;51.984;21.208;2022-12-18T11:48:06;102385.41;;;-2.84;63.29
30949;BME280;17637;51.984;21.208;2022-12-18T11:50:51;102384.09;;;-2.60;63.48
30949;BME280;17637;51.984;21.208;2022-12-18T11:53:26;102384.47;;;-2.91;63.62
30949;BME280;17637;51.984;21.208;2022-12-18T11:58:44;102380.31;;;-2.84;63.78
30949;BME280;17637;51.984;21.208;2022-12-18T12:01:42;102381.06;;;-2.90;63.80
30949;BME280;17637;51.984;21.208;2022-12-18T12:04:26;102384.81;;;-3.18;64.26
30949;BME280;17637;51.984;21.208;2022-12-18T12:16:15;102399.91;;;-2.80;64.01
30949;BME280;17637;51.984;21.208;2022-12-18T12:21:40;102370.50;;;-3.13;63.87
30949;BME280;17637;51.984;21.208;2022-12-18T12:35:31;102411.22;;;-3.57;65.02
30949;BME280;17637;51.984;21.208;2022-12-18T12:40:53;102422.53;;;-3.43;64.09
30949;BME280;17637;51.984;21.208;2022-12-18T12:43:44;102405.38;;;-3.53;64.12
30949;BME280;17637;51.984;21.208;2022-12-18T12:46:22;102417.13;;;-3.58;64.43
30949;BME280;17637;51.984;21.208;2022-12-18T12:48:59;102424.13;;;-3.48;64.62
30949;BME280;17637;51.984;21.208;2022-12-18T12:51:35;102397.47;;;-3.67;65.89
30949;BME280;17637;51.984;21.208;2022-12-18T12:54:16;102441.28;;;-3.36;65.17
30949;BME280;17637;51.984;21.208;2022-12-18T12:59:49;102437.94;;;-3.34;64.65
30949;BME280;17637;51.984;21.208;2022-12-18T13:08:06;102440.69;;;-3.67;65.56
30949;BME280;17637;51.984;21.208;2022-12-18T13:10:40;102449.22;;;-3.64;66.40
30949;BME280;17637;51.984;21.208;2022-12-18T13:13:15;102450.75;;;-3.72;66.44
30949;BME280;17637;51.984;21.208;2022-12-18T13:16:04;102465.75;;;-3.84;66.90
30949;BME280;17637;51.984;21.208;2022-12-18T13:18:37;102448.81;;;-3.84;66.66
30949;BME280;17637;51.984;21.208;2022-12-18T13:21:21;102469.75;;;-3.94;67.35
30949;BME280;17637;51.984;21.208;2022-12-18T13:23:56;102459.25;;;-4.09;67.23
30949;BME280;17637;51.984;21.208;2022-12-18T13:26:40;102359.53;;;-4.77;67.64
30949;BME280;17637;51.984;21.208;2022-12-18T13:32:25;102486.72;;;-3.93;68.00
30949;BME280;17637;51.984;21.208;2022-12-18T13:37:54;102480.91;;;-4.25;68.13
30949;BME280;17637;51.984;21.208;2022-12-18T13:48:24;102483.41;;;-4.61;68.52
30949;BME280;17637;51.984;21.208;2022-12-18T13:51:05;102488.53;;;-4.59;69.04
30949;BME280;17637;51.984;21.208;2022-12-18T13:53:58;102492.72;;;-4.61;69.19
30949;BME280;17637;51.984;21.208;2022-12-18T13:56:32;102501.41;;;-4.51;69.31
30949;BME280;17637;51.984;21.208;2022-12-18T14:04:25;102490.34;;;-4.55;69.84
30949;BME280;17637;51.984;21.208;2022-12-18T14:07:12;102487.88;;;-4.52;68.61
30949;BME280;17637;51.984;21.208;2022-12-18T14:09:50;102490.44;;;-4.50;69.54
30949;BME280;17637;51.984;21.208;2022-12-18T14:12:33;102495.47;;;-4.52;69.37
30949;BME280;17637;51.984;21.208;2022-12-18T14:15:29;102496.47;;;-4.47;69.56
30949;BME280;17637;51.984;21.208;2022-12-18T14:20:59;102513.50;;;-4.41;69.87
30949;BME280;17637;51.984;21.208;2022-12-18T14:23:38;102507.56;;;-4.43;69.15
30949;BME280;17637;51.984;21.208;2022-12-18T14:26:29;102524.53;;;-4.40;69.67
30949;BME280;17637;51.984;21.208;2022-12-18T14:29:23;102515.16;;;-4.43;69.38
30949;BME280;17637;51.984;21.208;2022-12-18T14:32:13;102530.56;;;-4.37;69.70
30949;BME280;17637;51.984;21.208;2022-12-18T14:34:51;102527.09;;;-4.39;69.54
30949;BME280;17637;51.984;21.208;2022-12-18T14:37:25;102531.19;;;-4.46;69.57
30949;BME280;17637;51.984;21.208;2022-12-18T14:40:00;102534.56;;;-4.45;69.46
30949;BME280;17637;51.984;21.208;2022-12-18T14:42:41;102534.59;;;-4.43;69.56
30949;BME280;17637;51.984;21.208;2022-12-18T14:45:34;102535.66;;;-4.69;70.34
30949;BME280;17637;51.984;21.208;2022-12-18T14:48:17;102549.56;;;-4.54;70.08
30949;BME280;17637;51.984;21.208;2022-12-18T14:51:00;102544.66;;;-4.48;70.55
30949;BME280;17637;51.984;21.208;2022-12-18T14:56:24;102544.63;;;-4.50;70.00
30949;BME280;17637;51.984;21.208;2022-12-18T14:58:58;102513.81;;;-4.64;69.83
30949;BME280;17637;51.984;21.208;2022-12-18T15:01:37;102429.56;;;-5.16;69.52
30949;BME280;17637;51.984;21.208;2022-12-18T15:04:31;102543.84;;;-4.47;69.63
30949;BME280;17637;51.984;21.208;2022-12-18T15:18:17;102519.63;;;-4.68;69.37
30949;BME280;17637;51.984;21.208;2022-12-18T15:20:58;102547.75;;;-4.60;69.27
30949;BME280;17637;51.984;21.208;2022-12-18T15:23:50;102552.69;;;-4.65;69.07
30949;BME280;17637;51.984;21.208;2022-12-18T15:26:23;102512.16;;;-4.94;69.62
30949;BME280;17637;51.984;21.208;2022-12-18T15:28:57;102558.66;;;-4.63;70.06
30949;BME280;17637;51.984;21.208;2022-12-18T15:31:35;102531.75;;;-4.89;69.60
30949;BME280;17637;51.984;21.208;2022-12-18T15:34:21;102432.03;;;-5.51;69.35